Lucas, Mississippi
Current Conditions -  °F | °C
As of 11:35 AM on Thursday 27 Nov 2014 (Local Time) from K1R7 Reporting Station
Clear Clear  
Wind Chill: 50°   Ceiling: Unl
Heat Index: 50°   Visibility: 10mi
Dew Point: 32°   Wind: 10mph
Humidity: 50%   Direction: 350°N
Pressure: 30.47"   Gusts: NA
Location:  31.5969°N, 89.8752°W
Report Text: K1R7 271735Z AUTO 35009KT 10SM CLR 10/00 A3047 RMK AO2
Loading
Personal Weather Stations






























Interactive Weather Map New forecast layout! Learn more

10-Day Weather Forecast

Advertisements
Track Severe Weather on mobile